createdAt,value
2018-11-29T00:02:03.552Z,15.27
2018-11-29T00:04:31.965Z,14.00
2018-11-29T00:07:00.096Z,14.50
2018-11-29T00:09:28.300Z,13.57
2018-11-29T00:11:56.480Z,13.47
2018-11-29T00:14:24.652Z,14.70
2018-11-29T00:16:52.812Z,14.73
2018-11-29T00:19:20.985Z,16.77
2018-11-29T00:21:49.137Z,14.80
2018-11-29T00:24:17.305Z,18.20
2018-11-29T00:26:45.456Z,16.57
2018-11-29T00:29:13.600Z,16.77
2018-11-29T00:31:41.777Z,15.40
2018-11-29T00:34:09.931Z,15.07
2018-11-29T00:36:38.256Z,16.80
2018-11-29T00:39:07.309Z,15.87
2018-11-29T00:41:35.496Z,15.77
2018-11-29T00:44:03.672Z,14.20
2018-11-29T00:46:31.856Z,15.50
2018-11-29T00:49:00.000Z,15.13
2018-11-29T00:51:28.192Z,14.93
2018-11-29T00:53:56.357Z,13.33
2018-11-29T00:56:24.541Z,15.23
2018-11-29T00:58:52.692Z,15.40
2018-11-29T01:01:20.872Z,14.80
2018-11-29T01:03:49.037Z,15.30
2018-11-29T01:06:17.204Z,15.17
2018-11-29T01:08:45.401Z,15.20
2018-11-29T01:11:13.599Z,15.37
2018-11-29T01:13:41.755Z,14.43
2018-11-29T01:16:09.917Z,15.13
2018-11-29T01:18:38.072Z,14.50
2018-11-29T01:21:06.269Z,14.50
2018-11-29T01:23:34.417Z,14.83
2018-11-29T01:26:02.584Z,15.50
2018-11-29T01:28:30.753Z,14.00
2018-11-29T01:30:58.953Z,15.10
2018-11-29T01:33:27.101Z,13.27
2018-11-29T01:35:55.292Z,13.67
2018-11-29T01:38:23.476Z,13.70
2018-11-29T01:40:51.665Z,14.40
2018-11-29T01:43:19.811Z,13.60
2018-11-29T01:45:47.989Z,15.23
2018-11-29T01:48:16.140Z,13.47
2018-11-29T01:50:44.321Z,14.50
2018-11-29T01:53:12.489Z,14.10
2018-11-29T01:55:40.636Z,15.80
2018-11-29T01:58:08.836Z,15.40
2018-11-29T02:00:36.993Z,13.30
2018-11-29T02:03:05.340Z,14.70
2018-11-29T02:05:33.480Z,15.93
2018-11-29T02:08:01.666Z,14.50
2018-11-29T02:11:01.223Z,15.50
2018-11-29T02:13:29.406Z,15.57
2018-11-29T02:15:57.569Z,15.13
2018-11-29T02:18:25.737Z,14.60
2018-11-29T02:20:53.896Z,14.37
2018-11-29T02:23:22.060Z,15.30
2018-11-29T02:25:50.216Z,14.03
2018-11-29T02:28:18.384Z,15.07
2018-11-29T02:30:46.549Z,15.23
2018-11-29T02:33:14.748Z,15.10
2018-11-29T02:35:42.900Z,15.13
2018-11-29T02:38:11.117Z,14.63
2018-11-29T02:40:39.284Z,15.07
2018-11-29T02:43:07.458Z,15.47
2018-11-29T02:45:35.609Z,15.30
2018-11-29T02:48:03.800Z,14.67
2018-11-29T02:50:31.945Z,15.00
2018-11-29T02:53:00.118Z,16.03
2018-11-29T02:55:28.252Z,15.60
2018-11-29T02:57:56.424Z,14.00
2018-11-29T03:00:24.576Z,14.07
2018-11-29T03:02:52.769Z,14.77
2018-11-29T03:05:20.924Z,14.57
2018-11-29T03:07:49.100Z,13.90
2018-11-29T03:10:22.528Z,14.83
2018-11-29T03:12:50.708Z,14.17
2018-11-29T03:15:18.877Z,13.87
2018-11-29T03:17:47.062Z,15.30
2018-11-29T03:20:15.225Z,14.07
2018-11-29T03:22:43.403Z,14.33
2018-11-29T03:25:11.977Z,13.90
2018-11-29T03:27:40.164Z,15.37
2018-11-29T03:30:09.837Z,13.63
2018-11-29T03:32:38.059Z,14.70
2018-11-29T03:35:06.285Z,14.17
2018-11-29T03:37:34.470Z,13.70
2018-11-29T03:40:02.740Z,12.97
2018-11-29T03:42:30.922Z,14.37
2018-11-29T03:44:59.053Z,13.57
2018-11-29T03:47:27.221Z,13.83
2018-11-29T03:49:55.389Z,14.13
2018-11-29T03:52:23.545Z,13.13
2018-11-29T03:54:51.725Z,11.83
2018-11-29T03:57:19.880Z,13.37
2018-11-29T03:59:48.065Z,14.70
2018-11-29T04:02:16.245Z,14.47
2018-11-29T04:04:44.416Z,14.30
2018-11-29T04:07:12.720Z,14.00
2018-11-29T04:09:40.892Z,13.57
2018-11-29T04:12:09.045Z,12.97
2018-11-29T04:14:37.222Z,13.10
2018-11-29T04:17:05.371Z,13.07
2018-11-29T04:19:33.537Z,14.10
2018-11-29T04:22:01.696Z,12.37
2018-11-29T04:24:29.869Z,14.03
2018-11-29T04:26:58.012Z,14.00
2018-11-29T04:29:26.193Z,14.43
2018-11-29T04:31:54.337Z,12.20
2018-11-29T04:34:22.513Z,14.10
2018-11-29T04:36:50.656Z,13.77
2018-11-29T04:39:19.664Z,13.67
2018-11-29T04:41:47.800Z,14.80
2018-11-29T04:44:15.999Z,14.23
2018-11-29T04:46:48.177Z,13.00
2018-11-29T04:49:16.371Z,12.30
2018-11-29T04:51:44.544Z,13.17
2018-11-29T04:54:12.749Z,13.10
2018-11-29T04:56:40.922Z,13.00
2018-11-29T04:59:09.132Z,13.10
2018-11-29T05:01:37.531Z,14.00
2018-11-29T05:04:05.997Z,13.57
2018-11-29T05:06:35.080Z,12.30
2018-11-29T05:09:04.548Z,13.03
2018-11-29T05:11:32.730Z,12.47
2018-11-29T05:14:00.889Z,11.63
2018-11-29T05:16:29.032Z,11.30
2018-11-29T05:18:57.192Z,12.50
2018-11-29T05:21:25.357Z,12.17
2018-11-29T05:23:53.556Z,12.60
2018-11-29T05:26:21.723Z,12.30
2018-11-29T05:28:49.920Z,12.33
2018-11-29T05:31:18.062Z,12.80
2018-11-29T05:33:46.203Z,13.20
2018-11-29T05:36:14.380Z,13.07
2018-11-29T05:38:42.524Z,12.33
2018-11-29T05:41:10.709Z,13.93
2018-11-29T05:43:38.849Z,12.33
2018-11-29T05:46:07.042Z,13.17
2018-11-29T05:48:35.219Z,11.97
2018-11-29T05:51:03.400Z,12.07
2018-11-29T05:53:31.545Z,13.07
2018-11-29T05:55:59.711Z,13.20
2018-11-29T05:58:27.884Z,12.57
2018-11-29T06:00:56.345Z,12.37
2018-11-29T06:03:24.520Z,12.10
2018-11-29T06:05:52.706Z,12.00
2018-11-29T06:08:20.872Z,11.77
2018-11-29T06:10:49.058Z,12.93
2018-11-29T06:13:17.213Z,12.80
2018-11-29T06:15:45.395Z,11.47
2018-11-29T06:18:13.551Z,12.10
2018-11-29T06:20:41.713Z,11.80
2018-11-29T06:23:09.865Z,12.07
2018-11-29T06:25:38.040Z,11.33
2018-11-29T06:28:06.210Z,12.57
2018-11-29T06:30:34.429Z,12.53
2018-11-29T06:33:02.568Z,11.10
2018-11-29T06:35:30.732Z,13.00
2018-11-29T06:37:59.098Z,12.27
2018-11-29T06:40:27.289Z,13.83
2018-11-29T06:42:55.457Z,13.87
2018-11-29T06:45:23.661Z,12.17
2018-11-29T06:47:52.200Z,11.87
2018-11-29T06:50:20.413Z,14.37
2018-11-29T06:52:49.172Z,13.20
2018-11-29T06:55:18.106Z,12.37
2018-11-29T06:57:46.243Z,14.80
2018-11-29T07:00:35.677Z,12.93
2018-11-29T07:03:03.836Z,13.83
2018-11-29T07:05:32.025Z,12.50
2018-11-29T07:08:00.183Z,12.90
2018-11-29T07:10:32.780Z,12.80
2018-11-29T07:13:01.124Z,12.23
2018-11-29T07:15:29.292Z,13.00
2018-11-29T07:17:57.436Z,12.63
2018-11-29T07:20:25.608Z,12.80
2018-11-29T07:22:53.809Z,12.00
2018-11-29T07:25:21.999Z,13.50
2018-11-29T07:27:50.384Z,12.87
2018-11-29T07:30:18.617Z,11.80
2018-11-29T07:32:46.817Z,11.03
2018-11-29T07:35:15.369Z,12.57
2018-11-29T07:37:43.585Z,11.40
2018-11-29T07:40:13.836Z,12.33
2018-11-29T07:42:42.061Z,12.77
2018-11-29T07:45:14.680Z,12.77
2018-11-29T07:47:42.885Z,13.00
2018-11-29T07:50:12.640Z,13.17
2018-11-29T07:52:40.821Z,13.60
2018-11-29T07:55:09.748Z,11.93
2018-11-29T07:57:37.960Z,12.00
2018-11-29T08:00:08.207Z,13.07
2018-11-29T08:02:36.384Z,13.13
2018-11-29T08:05:04.965Z,12.30
2018-11-29T08:07:33.130Z,12.67
2018-11-29T08:10:01.276Z,13.00
2018-11-29T08:12:29.445Z,13.30
2018-11-29T08:14:57.591Z,12.13
2018-11-29T08:17:25.761Z,12.77
2018-11-29T08:19:53.900Z,12.23
2018-11-29T08:22:22.058Z,14.10
2018-11-29T08:24:50.196Z,14.40
2018-11-29T08:27:18.360Z,13.60
2018-11-29T08:29:46.553Z,14.83
2018-11-29T08:32:14.717Z,14.10
2018-11-29T08:34:42.884Z,13.27
2018-11-29T08:37:11.060Z,15.40
2018-11-29T08:39:39.209Z,13.67
2018-11-29T08:42:07.370Z,13.77
2018-11-29T08:44:35.524Z,13.43
2018-11-29T08:47:03.769Z,13.43
2018-11-29T08:49:31.973Z,13.47
2018-11-29T08:52:00.173Z,11.97
2018-11-29T08:54:28.356Z,11.77
2018-11-29T08:56:56.559Z,12.63
2018-11-29T08:59:24.721Z,11.47
2018-11-29T09:01:52.913Z,11.30
2018-11-29T09:04:21.085Z,11.17
2018-11-29T09:06:49.253Z,11.00
2018-11-29T09:09:17.450Z,11.60
2018-11-29T09:11:45.620Z,10.73
2018-11-29T09:14:13.821Z,11.30
2018-11-29T09:16:41.985Z,12.17
2018-11-29T09:19:10.164Z,10.30
2018-11-29T09:21:38.328Z,12.50
2018-11-29T09:24:06.537Z,11.07
2018-11-29T09:26:34.728Z,11.50
2018-11-29T09:29:02.942Z,10.97
2018-11-29T09:31:31.129Z,11.97
2018-11-29T09:33:59.304Z,10.63
2018-11-29T09:36:27.489Z,10.00
2018-11-29T09:38:55.665Z,11.50
2018-11-29T09:41:23.829Z,10.60
2018-11-29T09:43:52.009Z,9.80
2018-11-29T09:46:20.168Z,10.53
2018-11-29T09:48:48.357Z,9.67
2018-11-29T09:51:16.513Z,8.90
2018-11-29T09:53:44.697Z,8.23
2018-11-29T09:56:12.871Z,7.77
2018-11-29T09:58:41.051Z,8.23
2018-11-29T10:01:09.201Z,8.30
2018-11-29T10:03:37.387Z,7.60
2018-11-29T10:06:05.657Z,8.00
2018-11-29T10:08:33.856Z,7.77
2018-11-29T10:11:02.008Z,8.53
2018-11-29T10:13:30.184Z,7.47
2018-11-29T10:15:58.352Z,8.90
2018-11-29T10:18:26.545Z,8.53
2018-11-29T10:20:54.711Z,8.67
2018-11-29T10:23:22.906Z,9.13
2018-11-29T10:25:51.128Z,8.30
2018-11-29T10:28:19.308Z,8.00
2018-11-29T10:30:50.337Z,9.40
2018-11-29T10:33:18.544Z,8.93
2018-11-29T10:35:46.716Z,8.70
2018-11-29T10:38:14.913Z,8.60
2018-11-29T10:40:43.065Z,8.30
2018-11-29T10:43:11.297Z,8.10
2018-11-29T10:45:40.468Z,7.63
2018-11-29T10:48:09.486Z,8.50
2018-11-29T10:50:37.772Z,8.37
2018-11-29T10:53:06.493Z,7.93
2018-11-29T10:55:34.676Z,8.03
2018-11-29T10:58:02.840Z,7.50
2018-11-29T11:00:34.620Z,7.47
2018-11-29T11:03:07.488Z,7.40
2018-11-29T11:05:35.982Z,8.97
2018-11-29T11:08:08.222Z,7.80
2018-11-29T11:10:32.424Z,7.97
2018-11-29T11:13:00.618Z,7.73
2018-11-29T11:15:28.790Z,7.30
2018-11-29T11:17:56.936Z,7.30
2018-11-29T11:20:25.120Z,7.90
2018-11-29T11:22:53.305Z,8.50
2018-11-29T11:25:21.493Z,7.40
2018-11-29T11:27:49.664Z,7.90
2018-11-29T11:30:18.498Z,7.83
2018-11-29T11:32:47.191Z,7.90
2018-11-29T11:35:15.415Z,6.40
2018-11-29T11:37:43.594Z,6.90
2018-11-29T11:40:12.352Z,7.50
2018-11-29T11:42:40.492Z,8.00
2018-11-29T11:45:10.449Z,8.27
2018-11-29T11:47:38.610Z,8.93
2018-11-29T11:50:10.832Z,8.00
2018-11-29T11:52:36.569Z,8.77
2018-11-29T11:55:05.960Z,8.23
2018-11-29T11:57:34.112Z,7.80
2018-11-29T12:00:02.334Z,8.10
2018-11-29T12:02:30.501Z,8.43
2018-11-29T12:04:58.680Z,7.97
2018-11-29T12:07:26.847Z,8.40
2018-11-29T12:09:55.034Z,8.50
2018-11-29T12:12:23.186Z,8.67
2018-11-29T12:14:51.377Z,9.70
2018-11-29T12:17:19.529Z,8.50
2018-11-29T12:19:47.718Z,9.13
2018-11-29T12:22:15.885Z,9.77
2018-11-29T12:24:44.085Z,9.60
2018-11-29T12:27:12.247Z,9.53
2018-11-29T12:29:40.417Z,9.80
2018-11-29T12:32:08.576Z,9.33
2018-11-29T12:34:36.737Z,9.07
2018-11-29T12:37:05.100Z,10.17
2018-11-29T12:39:33.257Z,9.17
2018-11-29T12:42:01.457Z,10.50
2018-11-29T12:44:29.605Z,10.00
2018-11-29T12:46:57.788Z,10.10
2018-11-29T12:49:25.948Z,9.43
2018-11-29T12:51:54.134Z,12.73
2018-11-29T12:54:22.980Z,10.03
2018-11-29T12:56:51.162Z,9.70
2018-11-29T12:59:19.338Z,9.77
2018-11-29T13:01:47.519Z,10.90
2018-11-29T13:04:15.689Z,11.07
2018-11-29T13:06:43.872Z,11.37
2018-11-29T13:09:12.021Z,11.37
2018-11-29T13:11:40.205Z,11.17
2018-11-29T13:14:08.409Z,10.67
2018-11-29T13:16:36.610Z,10.00
2018-11-29T13:19:04.787Z,10.63
2018-11-29T13:21:32.969Z,10.50
2018-11-29T13:24:01.250Z,11.47
2018-11-29T13:26:29.365Z,11.70
2018-11-29T13:28:57.525Z,11.23
2018-11-29T13:31:25.704Z,11.70
2018-11-29T13:33:53.857Z,11.60
2018-11-29T13:36:22.050Z,10.43
2018-11-29T13:38:50.220Z,11.00
2018-11-29T13:41:18.414Z,11.30
2018-11-29T13:43:46.594Z,11.27
2018-11-29T13:46:14.781Z,11.37
2018-11-29T13:48:42.939Z,10.47
2018-11-29T13:51:11.128Z,11.50
2018-11-29T13:53:39.313Z,11.40
2018-11-29T13:56:07.574Z,11.37
2018-11-29T13:58:35.726Z,11.30
2018-11-29T14:01:03.929Z,10.17
2018-11-29T14:03:32.116Z,11.60
2018-11-29T14:06:00.306Z,13.00
2018-11-29T14:08:28.489Z,12.10
2018-11-29T14:10:56.657Z,11.90
2018-11-29T14:13:24.844Z,12.27
2018-11-29T14:15:53.013Z,13.07
2018-11-29T14:18:21.196Z,12.53
2018-11-29T14:20:49.357Z,13.10
2018-11-29T14:23:17.545Z,13.80
2018-11-29T14:25:45.739Z,14.70
2018-11-29T14:28:13.941Z,13.67
2018-11-29T14:30:42.105Z,13.20
2018-11-29T14:33:10.296Z,13.80
2018-11-29T14:35:38.458Z,13.07
2018-11-29T14:38:06.956Z,13.40
2018-11-29T14:40:35.322Z,13.47
2018-11-29T14:43:03.496Z,13.00
2018-11-29T14:45:31.861Z,13.80
2018-11-29T14:48:00.065Z,15.60
2018-11-29T14:50:31.749Z,13.33
2018-11-29T14:52:59.946Z,13.43
2018-11-29T14:55:28.136Z,12.00
2018-11-29T14:57:56.348Z,11.50
2018-11-29T15:00:24.533Z,12.83
2018-11-29T15:02:52.889Z,12.17
2018-11-29T15:05:22.665Z,12.60
2018-11-29T15:07:50.870Z,12.40
2018-11-29T15:10:19.032Z,12.70
2018-11-29T15:12:47.229Z,12.10
2018-11-29T15:15:15.395Z,12.70
2018-11-29T15:17:44.006Z,13.40
2018-11-29T15:20:12.896Z,12.23
2018-11-29T15:22:41.096Z,12.20
2018-11-29T15:25:09.300Z,11.40
2018-11-29T15:27:37.486Z,12.93
2018-11-29T15:30:07.563Z,12.33
2018-11-29T15:32:35.758Z,11.87
2018-11-29T15:35:03.965Z,12.20
2018-11-29T15:37:32.162Z,12.50
2018-11-29T15:40:00.331Z,12.03
2018-11-29T15:42:28.502Z,11.73
2018-11-29T15:44:56.668Z,11.20
2018-11-29T15:47:24.820Z,12.60
2018-11-29T15:49:53.034Z,12.90
2018-11-29T15:52:21.225Z,12.07
2018-11-29T15:54:49.384Z,13.10
2018-11-29T15:57:17.537Z,13.93
2018-11-29T15:59:45.739Z,17.43
2018-11-29T16:02:13.910Z,13.70
2018-11-29T16:04:42.084Z,13.03
2018-11-29T16:07:10.249Z,14.10
2018-11-29T16:09:38.448Z,13.70
2018-11-29T16:12:06.613Z,15.27
2018-11-29T16:14:34.781Z,14.23
2018-11-29T16:17:02.944Z,12.93
2018-11-29T16:19:31.125Z,14.00
2018-11-29T16:21:59.325Z,13.90
2018-11-29T16:24:27.512Z,14.47
2018-11-29T16:26:55.668Z,20.67
2018-11-29T16:29:23.835Z,15.73
2018-11-29T16:31:52.040Z,14.47
2018-11-29T16:34:20.209Z,14.17
2018-11-29T16:36:48.376Z,13.50
2018-11-29T16:39:16.557Z,13.80
2018-11-29T16:41:44.728Z,14.87
2018-11-29T16:44:12.895Z,15.20
2018-11-29T16:46:41.090Z,15.77
2018-11-29T16:49:09.319Z,14.60
2018-11-29T16:51:37.524Z,14.77
2018-11-29T16:54:05.792Z,16.60
2018-11-29T16:56:33.970Z,17.60
2018-11-29T16:59:02.197Z,18.30
2018-11-29T17:01:30.388Z,17.53
2018-11-29T17:03:58.614Z,19.20
2018-11-29T17:06:26.783Z,16.93
2018-11-29T17:08:54.991Z,16.70
2018-11-29T17:11:23.204Z,17.20
2018-11-29T17:13:51.421Z,16.93
2018-11-29T17:16:19.644Z,17.37
2018-11-29T17:18:47.810Z,16.23
2018-11-29T17:21:15.991Z,17.20
2018-11-29T17:23:44.192Z,16.57
2018-11-29T17:26:12.345Z,18.47
2018-11-29T17:28:40.545Z,16.80
2018-11-29T17:31:08.708Z,18.40
2018-11-29T17:33:36.868Z,15.73
2018-11-29T17:36:05.102Z,17.67
2018-11-29T17:38:33.262Z,16.03
2018-11-29T17:41:01.432Z,18.90
2018-11-29T17:43:29.589Z,18.27
2018-11-29T17:45:57.760Z,17.03
2018-11-29T17:48:25.920Z,17.30
2018-11-29T17:50:54.105Z,16.80
2018-11-29T17:53:22.252Z,18.67
2018-11-29T17:55:50.425Z,17.93
2018-11-29T17:58:18.584Z,17.60
2018-11-29T18:00:48.625Z,18.30
2018-11-29T18:03:17.949Z,16.77
2018-11-29T18:05:46.138Z,15.20
2018-11-29T18:08:14.289Z,15.80
2018-11-29T18:10:42.552Z,16.07
2018-11-29T18:13:18.093Z,16.50
2018-11-29T18:15:46.389Z,15.90
2018-11-29T18:18:14.777Z,15.30
2018-11-29T18:20:42.788Z,15.43
2018-11-29T18:23:11.000Z,15.00
2018-11-29T18:25:39.200Z,14.40
2018-11-29T18:28:07.620Z,15.07
2018-11-29T18:30:35.836Z,14.90
2018-11-29T18:33:04.048Z,14.50
2018-11-29T18:35:32.241Z,16.00
2018-11-29T18:38:00.428Z,15.47
2018-11-29T18:40:28.693Z,17.73
2018-11-29T18:42:57.368Z,16.53
2018-11-29T18:45:25.661Z,17.27
2018-11-29T18:47:54.178Z,18.67
2018-11-29T18:50:22.707Z,18.50
2018-11-29T18:52:51.008Z,18.10
2018-11-29T18:55:19.341Z,19.00
2018-11-29T18:57:47.486Z,20.73
2018-11-29T19:00:24.065Z,18.70
2018-11-29T19:02:57.003Z,19.07
2018-11-29T19:05:21.054Z,22.67
2018-11-29T19:07:49.359Z,21.27
2018-11-29T19:10:17.838Z,20.20
2018-11-29T19:12:50.041Z,20.73
2018-11-29T19:15:18.384Z,21.03
2018-11-29T19:17:46.540Z,20.07
2018-11-29T19:20:14.750Z,20.63
2018-11-29T19:22:42.928Z,22.23
2018-11-29T19:25:11.928Z,22.37
2018-11-29T19:27:40.100Z,22.03
2018-11-29T19:30:11.972Z,20.60
2018-11-29T19:32:40.154Z,20.70
2018-11-29T19:35:08.720Z,20.63
2018-11-29T19:37:36.908Z,21.63
2018-11-29T19:40:07.045Z,18.87
2018-11-29T19:42:35.230Z,21.37
2018-11-29T19:45:03.421Z,18.50
2018-11-29T19:47:31.605Z,20.10
2018-11-29T19:49:59.756Z,19.90
2018-11-29T19:52:27.936Z,22.13
2018-11-29T19:54:56.157Z,20.87
2018-11-29T19:57:24.425Z,21.13
2018-11-29T19:59:52.540Z,21.27
2018-11-29T20:02:20.777Z,20.27
2018-11-29T20:04:49.606Z,18.27
2018-11-29T20:07:18.577Z,16.57
2018-11-29T20:09:46.717Z,18.67
2018-11-29T20:12:14.900Z,17.60
2018-11-29T20:14:43.060Z,18.27
2018-11-29T20:17:10.980Z,17.57
2018-11-29T20:19:39.136Z,17.30
2018-11-29T20:22:07.325Z,16.67
2018-11-29T20:24:35.488Z,16.53
2018-11-29T20:27:03.706Z,17.80
2018-11-29T20:29:31.860Z,17.23
2018-11-29T20:32:00.046Z,16.93
2018-11-29T20:34:28.218Z,28.00
2018-11-29T20:36:56.409Z,22.93
2018-11-29T20:39:24.569Z,20.10
2018-11-29T20:41:52.791Z,18.97
2018-11-29T20:44:20.988Z,17.27
2018-11-29T20:46:49.164Z,17.47
2018-11-29T20:49:17.348Z,16.47
2018-11-29T20:51:45.525Z,16.87
2018-11-29T20:54:13.697Z,17.53
2018-11-29T20:56:41.889Z,17.07
2018-11-29T20:59:10.044Z,17.10
2018-11-29T21:01:38.208Z,16.97
2018-11-29T21:04:06.386Z,18.13
2018-11-29T21:06:34.544Z,17.27
2018-11-29T21:09:02.936Z,15.43
2018-11-29T21:11:31.086Z,15.80
2018-11-29T21:13:59.292Z,14.90
2018-11-29T21:16:27.436Z,18.23
2018-11-29T21:18:55.624Z,19.17
2018-11-29T21:21:23.773Z,16.87
2018-11-29T21:23:51.952Z,14.13
2018-11-29T21:26:20.145Z,15.50
2018-11-29T21:28:48.321Z,16.13
2018-11-29T21:31:16.469Z,15.20
2018-11-29T21:33:44.653Z,17.03
2018-11-29T21:36:12.801Z,15.53
2018-11-29T21:38:40.976Z,16.63
2018-11-29T21:41:09.144Z,17.47
2018-11-29T21:43:37.328Z,34.60
2018-11-29T21:46:05.489Z,23.33
2018-11-29T21:48:33.689Z,22.10
2018-11-29T21:51:01.860Z,17.87
2018-11-29T21:53:30.048Z,19.13
2018-11-29T21:55:58.192Z,18.60
2018-11-29T21:58:26.365Z,16.97
2018-11-29T22:00:54.537Z,17.17
2018-11-29T22:03:22.720Z,19.33
2018-11-29T22:05:50.896Z,15.47
2018-11-29T22:08:19.085Z,14.90
2018-11-29T22:10:47.241Z,14.37
2018-11-29T22:13:15.416Z,18.70
2018-11-29T22:15:43.590Z,15.97
2018-11-29T22:18:28.069Z,15.53
2018-11-29T22:20:56.815Z,14.83
2018-11-29T22:23:25.000Z,14.10
2018-11-29T22:25:53.509Z,13.20
2018-11-29T22:28:21.697Z,12.20
2018-11-29T22:30:49.840Z,13.43
2018-11-29T22:33:18.037Z,10.83
2018-11-29T22:35:46.195Z,12.97
2018-11-29T22:38:14.357Z,12.20
2018-11-29T22:40:42.526Z,11.60
2018-11-29T22:43:10.696Z,13.20
2018-11-29T22:45:38.844Z,12.10
2018-11-29T22:48:07.110Z,13.67
2018-11-29T22:50:35.258Z,13.83
2018-11-29T22:53:03.452Z,14.20
2018-11-29T22:55:31.656Z,14.53
2018-11-29T22:57:59.812Z,14.60
2018-11-29T23:00:32.304Z,14.07
2018-11-29T23:03:00.478Z,14.13
2018-11-29T23:05:28.671Z,13.63
2018-11-29T23:07:57.068Z,14.13
2018-11-29T23:10:25.289Z,13.10
2018-11-29T23:12:53.461Z,13.40
2018-11-29T23:15:21.656Z,15.57
2018-11-29T23:17:49.809Z,13.80
2018-11-29T23:20:18.001Z,14.40
2018-11-29T23:22:46.166Z,14.80
2018-11-29T23:25:14.353Z,14.97
2018-11-29T23:27:42.548Z,14.77
2018-11-29T23:30:11.584Z,15.30
2018-11-29T23:32:39.997Z,14.70
2018-11-29T23:35:08.213Z,14.93
2018-11-29T23:37:36.409Z,15.93
2018-11-29T23:40:05.269Z,16.80
2018-11-29T23:42:33.445Z,17.43
2018-11-29T23:45:01.633Z,16.10
2018-11-29T23:47:29.805Z,15.30
2018-11-29T23:49:57.996Z,15.03
2018-11-29T23:52:26.185Z,14.93
2018-11-29T23:54:54.374Z,15.40
2018-11-29T23:57:22.529Z,15.90
2018-11-29T23:59:50.714Z,16.57
